nws-alerts: Checking more than four warning/county codes can delay the loading of your pages. You should use a cron job to get the data.

Nearby METAR Reports

 

KMCE - Merced, California, USA
Distance from station: SE 4mi, 6km
Updated: Sat, 13-Apr-2024 2:53pm PDT
Rain, Mist, Overcast
Rain, Mist, Overcast
 Wind from ENE
Wind: ENE 13 mph, 20 km/h
Temperature: 46°F, 8°C
Wind Chill: 40°F, 4°C
Dew Point: 45°F, 7°C
Humidity: 93%
Barometer: 29.96 inHg, 1014.6 hPa
Summary: Rain, Mist
Clouds: Overcast
Visibility: 4 miles, 6 km
Cloud details: Overcast 4700 ft
2024/04/13 21:53 KMCE 132153Z AUTO 07011KT 4SM RA BR OVC047 08/07 A2996 RMK AO2 SLP145 P0013 T00830067
KMER - Merced/Castle Af, California, USA
Distance from station: NNW 4mi, 7km
Updated: Sat, 13-Apr-2024 2:53pm PDT
Light rain, Overcast
Light rain, Overcast
 Wind from ENE
Wind: ENE 12 mph, 19 km/h
Temperature: 46°F, 8°C
Wind Chill: 40°F, 4°C
Dew Point: 45°F, 7°C
Humidity: 93%
Barometer: 29.96 inHg, 1014.6 hPa
Summary: Light rain
Clouds: Overcast
Visibility: 4 miles, 6 km
Cloud details: Overcast 2000 ft
2024/04/13 21:53 KMER 132153Z 06010KT 4SM -RA OVC020 08/07 A2996
 
KMOD - Modesto, California, USA
Distance from station: NW 30mi, 48km
Updated: Sat, 13-Apr-2024 3:17pm PDT
Light rain, Overcast
Light rain, Overcast
 Wind from E
Wind: E 14 mph, 22 km/h
Temperature: 46°F, 8°C
Wind Chill: 40°F, 4°C
Dew Point: 45°F, 7°C
Humidity: 93%
Barometer: 29.96 inHg, 1014.6 hPa
Summary: Light rain
Clouds: Overcast
Visibility: 7 miles, 11 km
Cloud details: Mostly cloudy 900 ft
Overcast 4300 ft
2024/04/13 22:17 KMOD 132217Z 09012KT 7SM -RA BKN009 OVC043 08/07 A2996 RMK AO2 P0004 T00780067
KMAE - Madera, California, USA
Distance from station: SE 33mi, 54km
Updated: Sat, 13-Apr-2024 3:22pm PDT
Rain, Mist, Overcast
Rain, Mist, Overcast
 Wind from NNE
Wind: NNE 9 mph, 15 km/h
Temperature: 46°F, 8°C
Wind Chill: 41°F, 5°C
Dew Point: 43°F, 6°C
Humidity: 87%
Barometer: 30.00 inHg, 1015.9 hPa
Summary: Rain, Mist
Clouds: Overcast
Visibility: 2 1/2 miles, 4 km
Cloud details: Mostly cloudy 4100 ft
Overcast 5000 ft
2024/04/13 22:22 KMAE 132222Z AUTO 03008KT 2 1/2SM RA BR BKN041 OVC050 08/06 A3000 RMK AO2 P0008 T00780061
 
KO22 - Columbia, California, USA
Distance from station: N 49mi, 80km
Updated: Sat, 13-Apr-2024 3:15pm PDT
Mist, Clear
Mist, Clear
 Wind from calm
Wind: Calm
Temperature: 39°F, 4°C
Dew Point: 37°F, 3°C
Humidity: 93%
Barometer: 29.94 inHg, 1013.9 hPa
Summary: Mist
Clouds: Clear
Visibility: 4 miles, 6 km
2024/04/13 22:15 KO22 132215Z AUTO 00000KT 4SM BR CLR 04/03 A2994 RMK A01